カンクン の空港の天気 - METARとTAF

カンクン国際空港 ( MMUN / CUN ) - メキシコ キンタナ・ロー州カンクン
飛行場実況気象(Metar)
観測時間04/24 20:46 CDT (04/25 01:46 UTC)
風向・風速南東 4m/s
視程10km以上
天気現象
少しの雲 雲底高度 460m
全天の8割程度の雲 雲底高度 6100m
気温27℃
湿度84%
気圧1015hPa
METARMMUN 250146Z 14007KT 7SM FEW015 BKN200 27/24 A2998 RMK 8/508
過去の天気等 Google飛行場航空写真 Wunderground天気予報

過去48時間のMETAR

飛行場予報(TAF)
発表時間: 4/24 18:31 CDT (4/24 23:31 UTC)
予報対象時間: 24日19時 CDT ~ 26日1時 CDT
風向・風速東南東 5m/s
視程10km以上
全天の4割程度の雲 雲底高度 460m
全天の4割程度の雲 雲底高度 3,050m
全天の8割程度の雲 雲底高度 6,710m
24日19時 CDT ~ 24日23時 CDT に一時的に
視程6,440m
天気現象雷雨
全天の8割程度の積乱雲 雲底高度 460m
25日1時 CDT から
風向・風速北北東 5m/s
視程10km以上
全天の4割程度の雲 雲底高度 460m
25日5時 CDT から
風向・風速北東 5m/s
視程10km以上
全天の8割程度の雲 雲底高度 460m
25日7時 CDT から 確率 40% で
視程6,440m
天気現象しゅう雨
全天の8割程度の積乱雲 雲底高度 460m
全天を覆う雲 雲底高度 2,130m
25日12時 CDT から
風向・風速北東 8m/s
視程10km以上
全天の8割程度の雲 雲底高度 610m
25日17時 CDT から 確率 40% で
視程8,050m
天気現象
全天の8割程度の積乱雲 雲底高度 610m
TAF MMUN 242331Z 2500/2606 12010KT P6SM SCT015 SCT100 BKN220 TX29/2520Z TN22/213Z
TEMPO 2500/2504 4SM TSRA BKN015CB
FM250600 02010KT P6SM SCT015
FM251000 04010KT P6SM BKN015
PROB40 2512/2515 4SM SHRA BKN015CB OVC070
FM251700 04015KT P6SM BKN020
PROB40 2522/2602 5SM RA BKN020CB